Pittsburgh, Pennsylvania
Traffic Map
Current Weather Conditions
Pittsburgh, Pennsylvania
Clear
Clear
66°
Feels Like: 66°
Wind Chill: 66° Ceiling: Unl
Heat Index: 66° Visibility: 10mi
Dew Point: 51° Wind: 6mph
Humidity: 59% Direction: 350° (N)
Pressure: 30.15in Gusts: 0mph
Raw Report DataKAGC 242353Z 35005KT 10SM CLR 19/11 A3015 RMK AO2 SLP210 T01890106 10222 20189 53004
Traffic Incident Summary
Active as of:
Severity:
Category:
InformationThere was an issue retrieving the traffic information for this location. Please try a different location or try again shortly.
Advertisements
Track Severe Weather on mobile